Time;durP1;ratioP1;P1;durP2;ratioP2;P2;SDS_P1;SDS_P2;PMS_P1;PMS_P2;Temp;Humidity;BMP_temperature;BMP_pressure;BME280_temperature;BME280_humidity;BME280_pressure;Samples;Min_cycle;Max_cycle;Signal;HPM_P1;HPM_P2
2021/06/10 00:00:32;;;;;;;9.98;6.75;;;18.70;99.90;;;;;;5073604;28;20025;-89
2021/06/10 00:02:57;;;;;;;8.55;5.10;;;18.80;99.90;;;;;;5073678;28;20024;-89
2021/06/10 00:05:23;;;;;;;9.05;5.13;;;18.80;99.90;;;;;;5073546;28;20029;-89
2021/06/10 00:07:49;;;;;;;6.55;5.70;;;18.60;99.90;;;;;;5073102;28;20029;-89
2021/06/10 00:10:17;;;;;;;12.40;6.70;;;18.70;99.90;;;;;;5073433;28;20431;-89
2021/06/10 00:12:44;;;;;;;8.32;5.55;;;18.70;99.90;;;;;;5073572;28;20119;-90
2021/06/10 00:15:13;;;;;;;10.40;5.90;;;18.80;99.90;;;;;;5074406;28;20027;-89
2021/06/10 00:17:39;;;;;;;6.88;5.97;;;18.80;99.90;;;;;;5073373;28;20048;-89
2021/06/10 00:20:08;;;;;;;7.68;6.28;;;18.80;99.90;;;;;;5073416;28;20499;-89
2021/06/10 00:22:34;;;;;;;10.02;6.97;;;18.80;99.90;;;;;;5073409;28;20042;-90
2021/06/10 00:24:59;;;;;;;9.52;6.82;;;18.70;99.90;;;;;;5073045;28;20044;-89
2021/06/10 00:27:26;;;;;;;7.47;6.57;;;18.70;99.90;;;;;;5073661;28;20528;-89
2021/06/10 00:29:52;;;;;;;7.22;6.50;;;18.80;99.90;;;;;;5074088;28;20028;-89
2021/06/10 00:32:18;;;;;;;12.65;7.40;;;18.80;99.90;;;;;;5073248;28;20389;-90
2021/06/10 00:34:44;;;;;;;10.18;6.68;;;18.80;99.90;;;;;;5072608;28;20107;-90
2021/06/10 00:37:11;;;;;;;12.50;6.22;;;18.70;99.90;;;;;;5074865;28;20028;-90
2021/06/10 00:39:37;;;;;;;10.40;6.80;;;18.70;99.90;;;;;;5076212;28;20028;-89
2021/06/10 00:42:04;;;;;;;9.77;6.97;;;18.60;99.90;;;;;;5072830;28;20033;-90
2021/06/10 00:44:30;;;;;;;9.18;7.55;;;18.60;99.90;;;;;;5072531;28;20038;-89
2021/06/10 00:46:56;;;;;;;8.57;7.53;;;18.50;99.90;;;;;;5072899;28;20028;-90
2021/06/10 00:49:22;;;;;;;9.20;7.78;;;18.60;99.90;;;;;;5072543;28;20024;-90
2021/06/10 00:51:47;;;;;;;9.20;7.30;;;18.50;99.90;;;;;;5072732;28;20024;-90
2021/06/10 00:54:13;;;;;;;13.00;8.80;;;18.40;99.90;;;;;;5072981;28;20024;-89
2021/06/10 00:56:39;;;;;;;8.75;7.85;;;18.40;99.90;;;;;;5072404;28;20032;-90
2021/06/10 00:59:05;;;;;;;9.80;8.77;;;18.40;99.90;;;;;;5072689;28;20162;-90
2021/06/10 01:01:31;;;;;;;10.15;8.68;;;18.40;99.90;;;;;;5072520;28;20062;-89
2021/06/10 01:03:56;;;;;;;19.73;9.68;;;18.40;99.90;;;;;;5072917;28;20021;-89
2021/06/10 01:06:32;;;;;;;11.60;9.25;;;18.40;99.90;;;;;;5072997;28;20123;-89
2021/06/10 01:09:05;;;;;;;9.75;8.82;;;18.30;99.90;;;;;;5072566;28;20029;-89
2021/06/10 01:11:51;;;;;;;10.60;9.57;;;18.30;99.90;;;;;;5073149;28;20145;-89
2021/06/10 01:14:25;;;;;;;11.80;10.60;;;18.30;99.90;;;;;;5073043;28;20024;-89
2021/06/10 01:16:53;;;;;;;14.07;9.88;;;18.30;99.90;;;;;;5072316;28;20028;-89
2021/06/10 01:19:39;;;;;;;14.50;10.63;;;18.30;99.90;;;;;;5072694;28;20105;-90
2021/06/10 01:22:08;;;;;;;12.40;10.93;;;18.30;99.90;;;;;;5042100;28;20496;-89
2021/06/10 01:25:15;;;;;;;12.93;10.40;;;18.30;99.90;;;;;;5072265;28;20119;-90
2021/06/10 01:27:54;;;;;;;13.50;11.07;;;18.30;99.90;;;;;;5072397;28;20025;-90
2021/06/10 01:30:23;;;;;;;11.90;10.25;;;18.30;99.90;;;;;;5072525;28;20392;-90
2021/06/10 01:32:59;;;;;;;13.00;11.18;;;18.30;99.90;;;;;;5072368;28;20028;-89
2021/06/10 01:35:29;;;;;;;13.35;11.27;;;18.20;99.90;;;;;;5072536;28;20036;-89
2021/06/10 01:37:56;;;;;;;13.27;11.18;;;18.20;99.90;;;;;;5072279;28;20020;-89
2021/06/10 01:40:23;;;;;;;12.15;10.88;;;18.20;99.90;;;;;;5072189;28;20023;-90
2021/06/10 01:42:50;;;;;;;13.50;11.90;;;18.20;99.90;;;;;;5073431;28;20108;-90
2021/06/10 01:45:16;;;;;;;14.43;11.65;;;18.10;99.90;;;;;;5076223;28;20021;-90
2021/06/10 01:47:45;;;;;;;13.32;11.85;;;18.10;99.90;;;;;;5076074;28;20020;-90
2021/06/10 01:50:14;;;;;;;14.43;11.63;;;18.10;99.90;;;;;;5076316;28;20020;-90
2021/06/10 01:52:41;;;;;;;14.57;11.38;;;18.10;99.90;;;;;;5077361;28;20035;-89
2021/06/10 01:55:10;;;;;;;13.27;12.05;;;18.00;99.90;;;;;;5075821;28;20059;-89
2021/06/10 01:57:37;;;;;;;14.18;12.38;;;18.00;99.90;;;;;;5075781;28;20477;-89
2021/06/10 02:00:06;;;;;;;18.23;12.35;;;18.00;99.90;;;;;;5076082;28;20131;-90
2021/06/10 02:02:34;;;;;;;14.52;12.10;;;17.90;99.90;;;;;;5075532;28;20041;-90
2021/06/10 02:05:00;;;;;;;13.05;11.82;;;17.90;99.90;;;;;;5075577;28;20017;-90
2021/06/10 02:07:26;;;;;;;14.10;12.05;;;17.90;99.90;;;;;;5075598;28;20031;-90
2021/06/10 02:09:52;;;;;;;13.98;11.38;;;17.80;99.90;;;;;;5075568;28;20025;-90
2021/06/10 02:12:18;;;;;;;11.93;10.73;;;17.90;99.90;;;;;;5075802;28;20024;-89
2021/06/10 02:14:45;;;;;;;11.85;10.23;;;17.90;99.90;;;;;;5075874;28;20032;-89
2021/06/10 02:17:11;;;;;;;10.10;9.10;;;17.90;99.90;;;;;;5075377;28;20481;-89
2021/06/10 02:19:38;;;;;;;11.20;8.75;;;17.90;99.90;;;;;;5075514;28;20017;-90
2021/06/10 02:22:05;;;;;;;9.82;8.82;;;17.90;99.90;;;;;;5076858;28;20070;-89
2021/06/10 02:24:31;;;;;;;10.90;9.38;;;18.00;99.90;;;;;;5075518;28;20028;-90
2021/06/10 02:26:57;;;;;;;9.35;8.45;;;17.90;99.90;;;;;;5075762;28;20439;-89
2021/06/10 02:29:22;;;;;;;10.48;9.43;;;17.90;99.90;;;;;;5077225;28;20024;-90
2021/06/10 02:31:48;;;;;;;12.57;8.18;;;17.90;99.90;;;;;;5075404;28;20029;-90
2021/06/10 02:34:14;;;;;;;9.45;8.55;;;17.80;99.90;;;;;;5075574;28;20024;-90
2021/06/10 02:36:42;;;;;;;9.20;8.25;;;17.80;99.90;;;;;;5075548;28;20029;-89
2021/06/10 02:39:10;;;;;;;11.40;9.35;;;17.80;99.90;;;;;;5075630;28;20016;-90
2021/06/10 02:41:40;;;;;;;9.35;8.50;;;17.70;99.90;;;;;;5074865;28;20021;-90
2021/06/10 02:44:07;;;;;;;10.00;8.88;;;17.30;99.90;;;;;;5075212;28;20119;-90
2021/06/10 02:46:34;;;;;;;9.55;8.57;;;17.00;99.90;;;;;;5074837;28;20024;-91
2021/06/10 02:49:01;;;;;;;10.43;9.50;;;16.80;99.90;;;;;;5074714;28;20024;-90
2021/06/10 02:51:29;;;;;;;12.38;10.25;;;16.70;99.90;;;;;;5074649;28;20450;-91
2021/06/10 02:53:55;;;;;;;10.63;9.52;;;16.60;99.90;;;;;;5073637;28;20181;-90
2021/06/10 02:56:22;;;;;;;10.60;9.60;;;16.30;99.90;;;;;;5074289;28;20529;-90
2021/06/10 02:58:51;;;;;;;9.98;9.00;;;16.20;99.90;;;;;;5074499;28;20115;-91
2021/06/10 03:01:17;;;;;;;10.63;9.48;;;16.00;99.90;;;;;;5074493;28;20482;-91
2021/06/10 03:03:43;;;;;;;14.75;9.45;;;15.90;99.90;;;;;;5074575;28;20021;-91
2021/06/10 03:06:10;;;;;;;13.93;8.73;;;16.00;99.90;;;;;;5074536;28;20028;-91
2021/06/10 03:08:37;;;;;;;10.35;9.27;;;16.00;99.90;;;;;;5074357;28;20383;-90
2021/06/10 03:11:06;;;;;;;11.18;9.45;;;16.00;99.90;;;;;;5074357;28;20028;-90
2021/06/10 03:13:33;;;;;;;10.68;9.57;;;16.10;99.90;;;;;;5074229;28;20025;-89
2021/06/10 03:16:01;;;;;;;9.82;8.82;;;16.10;99.90;;;;;;5074256;28;20082;-91
2021/06/10 03:18:28;;;;;;;10.27;9.27;;;16.10;99.90;;;;;;5074044;28;20023;-91
2021/06/10 03:20:54;;;;;;;13.40;9.30;;;16.10;99.90;;;;;;5074326;28;20028;-90
2021/06/10 03:23:20;;;;;;;10.27;9.00;;;16.10;99.90;;;;;;5074174;28;20473;-90
2021/06/10 03:25:48;;;;;;;11.13;9.73;;;16.10;99.90;;;;;;5073776;28;20102;-90
2021/06/10 03:28:14;;;;;;;11.75;10.30;;;16.00;99.90;;;;;;5074135;28;20120;-90
2021/06/10 03:30:40;;;;;;;10.75;9.52;;;15.90;99.90;;;;;;5073936;28;20042;-91
2021/06/10 03:33:07;;;;;;;10.98;9.98;;;15.80;99.90;;;;;;5074351;28;20115;-91
2021/06/10 03:35:38;;;;;;;10.20;9.20;;;15.80;99.90;;;;;;5073515;28;20534;-91
2021/06/10 03:38:04;;;;;;;13.95;9.85;;;15.80;99.90;;;;;;5073727;28;20397;-91
2021/06/10 03:40:31;;;;;;;13.60;9.68;;;15.70;99.90;;;;;;5074373;28;20028;-90
2021/06/10 03:42:58;;;;;;;12.38;9.02;;;15.70;99.90;;;;;;5074883;28;20024;-90
2021/06/10 03:45:26;;;;;;;10.18;9.02;;;15.70;99.90;;;;;;5073544;28;20469;-90
2021/06/10 03:47:52;;;;;;;12.10;8.98;;;15.70;99.90;;;;;;5073569;28;20024;-90
2021/06/10 03:50:18;;;;;;;10.00;9.00;;;15.80;99.90;;;;;;5073721;28;20027;-90
2021/06/10 03:52:44;;;;;;;9.43;8.38;;;15.70;99.90;;;;;;5073389;28;20021;-90
2021/06/10 03:55:11;;;;;;;10.85;9.10;;;15.80;99.90;;;;;;5073282;28;20016;-90
2021/06/10 03:57:38;;;;;;;9.30;8.30;;;15.80;99.90;;;;;;5073684;28;20449;-91
2021/06/10 04:00:07;;;;;;;13.57;8.60;;;15.90;99.90;;;;;;5073331;28;20492;-90
2021/06/10 04:02:33;;;;;;;12.35;8.63;;;15.90;99.90;;;;;;5073485;28;20386;-91
2021/06/10 04:04:59;;;;;;;10.35;8.52;;;15.90;99.90;;;;;;5073007;28;20115;-90
2021/06/10 04:07:24;;;;;;;11.20;9.15;;;16.00;99.90;;;;;;5073124;28;20127;-91
2021/06/10 04:09:50;;;;;;;11.35;8.40;;;16.00;99.90;;;;;;5073368;28;20124;-90
2021/06/10 04:12:16;;;;;;;12.00;8.80;;;16.00;99.90;;;;;;5073384;28;20029;-91
2021/06/10 04:14:41;;;;;;;10.50;9.40;;;16.10;99.90;;;;;;5075029;28;20025;-91
2021/06/10 04:17:07;;;;;;;13.50;10.80;;;16.10;99.90;;;;;;5074296;28;20024;-91
2021/06/10 04:19:33;;;;;;;12.30;10.55;;;16.10;99.90;;;;;;5072516;28;20021;-92
2021/06/10 04:21:58;;;;;;;11.20;10.10;;;16.10;99.90;;;;;;5072940;28;20028;-91
2021/06/10 04:24:24;;;;;;;12.38;11.07;;;16.20;99.90;;;;;;5072798;28;20025;-91
2021/06/10 04:26:49;;;;;;;12.88;11.52;;;16.20;99.90;;;;;;5073293;28;20700;-91
2021/06/10 04:29:15;;;;;;;16.52;11.32;;;16.20;99.90;;;;;;5073230;28;20157;-91
2021/06/10 04:31:41;;;;;;;12.30;10.32;;;16.20;99.90;;;;;;5073507;28;20031;-89
2021/06/10 04:34:07;;;;;;;13.57;11.38;;;16.10;99.90;;;;;;5073196;28;20415;-89
2021/06/10 04:36:32;;;;;;;13.82;11.43;;;16.20;99.90;;;;;;5073031;28;20032;-89
2021/06/10 04:38:58;;;;;;;12.35;11.13;;;16.30;99.90;;;;;;5073244;28;20025;-89
2021/06/10 04:41:24;;;;;;;12.40;11.10;;;16.30;99.90;;;;;;5072865;28;20426;-90
2021/06/10 04:43:49;;;;;;;12.50;11.20;;;16.50;99.90;;;;;;5074999;28;20119;-88
2021/06/10 04:46:16;;;;;;;11.13;9.73;;;16.50;99.90;;;;;;5073300;28;20473;-88
2021/06/10 04:48:41;;;;;;;10.65;9.55;;;16.60;99.90;;;;;;5074304;28;20112;-89
2021/06/10 04:51:07;;;;;;;10.55;9.50;;;16.70;99.90;;;;;;5072954;28;20078;-89
2021/06/10 04:53:33;;;;;;;10.45;9.35;;;16.70;99.90;;;;;;5073039;28;20024;-89
2021/06/10 04:55:59;;;;;;;10.27;9.07;;;16.70;99.90;;;;;;5072732;28;20028;-90
2021/06/10 04:58:25;;;;;;;10.60;8.80;;;16.90;99.90;;;;;;5072980;28;20055;-90
2021/06/10 05:00:50;;;;;;;9.63;8.63;;;16.90;99.90;;;;;;5073369;28;20032;-82
2021/06/10 05:03:25;;;;;;;11.68;8.40;;;16.90;99.90;;;;;;5074913;28;20021;-82
2021/06/10 05:05:50;;;;;;;11.23;8.63;;;16.90;99.90;;;;;;5076224;28;20021;-82
2021/06/10 05:08:16;;;;;;;10.50;8.10;;;16.90;99.90;;;;;;5074787;28;20119;-82
2021/06/10 05:10:42;;;;;;;11.25;7.93;;;16.90;99.90;;;;;;5074288;28;20024;-83
2021/06/10 05:13:08;;;;;;;10.00;7.13;;;17.00;99.90;;;;;;5076964;28;20021;-83
2021/06/10 05:15:34;;;;;;;8.93;6.10;;;17.00;99.90;;;;;;5075298;28;20039;-83
2021/06/10 05:17:59;;;;;;;9.20;6.90;;;17.10;99.90;;;;;;5076733;28;20039;-83
2021/06/10 05:20:25;;;;;;;8.88;6.32;;;17.20;99.90;;;;;;5080313;28;20585;-83
2021/06/10 05:22:51;;;;;;;7.05;6.35;;;17.20;99.90;;;;;;5080216;28;20021;-83
2021/06/10 05:25:16;;;;;;;7.03;6.38;;;17.20;99.90;;;;;;5071000;28;20092;-83
2021/06/10 05:27:42;;;;;;;6.70;5.57;;;17.20;99.90;;;;;;5082179;28;20031;-84
2021/06/10 05:30:08;;;;;;;7.18;5.45;;;17.20;99.90;;;;;;5078621;28;20021;-85
2021/06/10 05:32:34;;;;;;;7.68;5.28;;;17.10;99.90;;;;;;5084329;28;20020;-84
2021/06/10 05:35:00;;;;;;;5.70;5.10;;;17.10;99.90;;;;;;5079196;28;20021;-85
2021/06/10 05:37:26;;;;;;;5.13;4.55;;;17.20;99.90;;;;;;5082938;28;20097;-82
2021/06/10 05:39:51;;;;;;;7.40;4.53;;;17.20;99.90;;;;;;5077082;28;20021;-83
2021/06/10 05:42:17;;;;;;;5.03;4.43;;;17.30;99.90;;;;;;5077463;28;20059;-83
2021/06/10 05:44:43;;;;;;;7.30;4.50;;;17.30;99.90;;;;;;5077895;28;20028;-83
2021/06/10 05:47:10;;;;;;;8.02;4.15;;;17.30;99.90;;;;;;5077618;28;20032;-83
2021/06/10 05:49:36;;;;;;;6.55;4.60;;;17.30;99.90;;;;;;5077215;28;20031;-83
2021/06/10 05:52:03;;;;;;;4.45;3.90;;;17.40;99.90;;;;;;5076334;28;20369;-84
2021/06/10 05:54:29;;;;;;;5.80;4.60;;;17.40;99.90;;;;;;5075649;28;20050;-84
2021/06/10 05:56:55;;;;;;;5.82;4.60;;;17.40;99.90;;;;;;5070198;28;20090;-83
2021/06/10 05:59:20;;;;;;;7.32;4.60;;;17.40;99.90;;;;;;5067673;28;20620;-84
2021/06/10 06:01:46;;;;;;;6.75;4.65;;;17.40;99.90;;;;;;5057404;28;20116;-87
2021/06/10 06:04:12;;;;;;;6.47;4.65;;;17.50;99.90;;;;;;5066559;28;20016;-87
2021/06/10 06:06:38;;;;;;;4.32;3.90;;;17.50;99.90;;;;;;5073685;28;20028;-85
2021/06/10 06:09:07;;;;;;;7.25;3.85;;;17.50;99.90;;;;;;5072182;28;20016;-86
2021/06/10 06:11:34;;;;;;;7.63;4.13;;;17.60;99.90;;;;;;5070551;28;20381;-86
2021/06/10 06:14:09;;;;;;;7.60;4.50;;;17.80;99.90;;;;;;5060454;28;20025;-88
2021/06/10 06:16:41;;;;;;;5.90;3.63;;;17.90;99.90;;;;;;5068778;28;20032;-87
2021/06/10 06:19:11;;;;;;;4.72;3.22;;;18.00;99.90;;;;;;5061778;28;20021;-88
2021/06/10 06:21:37;;;;;;;7.72;4.10;;;18.00;99.90;;;;;;5064703;28;20061;-85
2021/06/10 06:24:04;;;;;;;6.28;3.42;;;18.00;99.90;;;;;;5070523;28;20024;-85
2021/06/10 06:26:30;;;;;;;6.40;3.05;;;18.10;99.90;;;;;;5077270;28;20614;-85
2021/06/10 06:29:01;;;;;;;6.63;3.38;;;18.20;99.90;;;;;;5069729;28;20085;-85
2021/06/10 06:31:27;;;;;;;9.15;3.80;;;18.30;99.90;;;;;;5076369;28;20028;-84
2021/06/10 06:33:53;;;;;;;3.97;3.13;;;18.40;99.90;;;;;;5056475;28;20029;-86
2021/06/10 06:36:19;;;;;;;7.20;3.17;;;18.60;99.90;;;;;;5066153;28;20024;-86
2021/06/10 06:38:44;;;;;;;4.30;3.03;;;18.80;99.90;;;;;;5064942;28;20057;-85
2021/06/10 06:41:10;;;;;;;7.20;3.28;;;19.70;99.90;;;;;;5059941;28;20068;-85
2021/06/10 06:43:37;;;;;;;3.85;2.90;;;20.70;99.90;;;;;;5052814;28;20515;-85
2021/06/10 06:46:06;;;;;;;3.95;2.50;;;22.00;99.90;;;;;;5059625;28;20067;-85
2021/06/10 06:48:32;;;;;;;7.18;2.83;;;22.70;97.80;;;;;;5056881;28;20033;-87
2021/06/10 06:50:59;;;;;;;4.35;2.40;;;23.30;95.90;;;;;;5056721;28;20078;-89
2021/06/10 06:53:25;;;;;;;4.30;2.70;;;23.30;94.90;;;;;;5051471;28;20037;-89
2021/06/10 06:55:51;;;;;;;7.63;2.65;;;23.80;94.20;;;;;;5057725;28;20382;-88
2021/06/10 06:58:16;;;;;;;5.38;2.78;;;24.60;91.60;;;;;;5067619;28;20032;-88
2021/06/10 07:00:42;;;;;;;4.60;2.60;;;25.30;89.20;;;;;;5066952;28;20040;-89
2021/06/10 07:03:08;;;;;;;4.28;2.60;;;25.10;88.10;;;;;;5056818;28;20029;-87
2021/06/10 07:05:34;;;;;;;4.45;2.58;;;25.40;87.90;;;;;;5063908;28;20040;-88
2021/06/10 07:08:00;;;;;;;4.00;2.20;;;25.30;86.30;;;;;;5063594;28;20481;-88
2021/06/10 07:10:26;;;;;;;2.42;2.10;;;25.40;85.60;;;;;;5057376;28;20029;-88
2021/06/10 07:12:52;;;;;;;2.60;2.15;;;25.10;86.30;;;;;;5060294;28;20036;-87
2021/06/10 07:15:18;;;;;;;3.60;2.33;;;25.60;83.60;;;;;;5053512;28;20029;-88
2021/06/10 07:17:43;;;;;;;6.90;2.63;;;25.30;84.20;;;;;;5059413;28;20027;-89
2021/06/10 07:20:10;;;;;;;3.95;2.40;;;25.10;87.20;;;;;;5055550;28;20128;-88
2021/06/10 07:22:39;;;;;;;6.88;2.90;;;25.70;85.80;;;;;;5058827;28;20044;-87
2021/06/10 07:25:07;;;;;;;2.83;2.60;;;26.50;82.30;;;;;;5070452;28;20812;-87
2021/06/10 07:27:34;;;;;;;6.40;3.00;;;25.50;84.40;;;;;;5061833;28;20095;-87
2021/06/10 07:30:00;;;;;;;4.25;2.97;;;26.50;81.20;;;;;;5058401;28;20067;-85
2021/06/10 07:32:26;;;;;;;4.43;3.00;;;26.50;80.70;;;;;;5071890;28;20385;-85
2021/06/10 07:34:53;;;;;;;6.22;3.28;;;26.40;81.00;;;;;;5060731;28;20389;-85
2021/06/10 07:37:19;;;;;;;4.63;3.42;;;27.20;79.90;;;;;;5060254;28;20124;-85
2021/06/10 07:39:45;;;;;;;6.90;3.60;;;27.50;77.10;;;;;;5063120;28;20465;-86
2021/06/10 07:42:12;;;;;;;6.65;3.30;;;26.50;80.50;;;;;;5069629;28;20020;-86
2021/06/10 07:44:38;;;;;;;4.80;3.45;;;26.70;80.60;;;;;;5074470;28;20020;-84
2021/06/10 07:47:04;;;;;;;4.05;3.20;;;26.60;81.40;;;;;;5074156;28;20153;-85
2021/06/10 07:49:30;;;;;;;7.57;3.35;;;27.60;78.00;;;;;;5060831;28;20461;-84
2021/06/10 07:51:56;;;;;;;4.78;3.67;;;27.00;79.90;;;;;;5071635;28;20032;-84
2021/06/10 07:54:21;;;;;;;4.65;3.50;;;27.40;79.00;;;;;;5073608;28;20111;-85
2021/06/10 07:56:47;;;;;;;8.38;3.78;;;27.40;79.50;;;;;;5064270;28;20106;-86
2021/06/10 07:59:13;;;;;;;5.03;3.28;;;27.20;80.40;;;;;;5063996;28;20073;-85
2021/06/10 08:01:39;;;;;;;4.32;3.10;;;27.40;80.50;;;;;;5071697;28;20024;-85
2021/06/10 08:04:05;;;;;;;3.88;3.47;;;28.30;77.90;;;;;;5072313;28;20052;-85
2021/06/10 08:06:31;;;;;;;3.78;3.47;;;28.10;77.50;;;;;;5065003;28;20043;-85
2021/06/10 08:08:57;;;;;;;6.25;2.75;;;27.40;79.70;;;;;;5065334;28;20024;-84
2021/06/10 08:11:22;;;;;;;9.27;3.33;;;28.20;79.30;;;;;;5064021;28;20420;-85
2021/06/10 08:13:48;;;;;;;12.75;3.60;;;29.10;76.20;;;;;;5071660;28;20028;-84
2021/06/10 08:16:14;;;;;;;8.82;3.45;;;29.90;73.50;;;;;;5067843;28;20025;-85
2021/06/10 08:18:49;;;;;;;7.80;3.00;;;30.40;71.20;;;;;;5068158;28;20063;-84
2021/06/10 08:21:14;;;;;;;8.18;3.30;;;31.10;69.80;;;;;;5061535;28;20124;-84
2021/06/10 08:23:40;;;;;;;10.15;4.00;;;30.10;71.30;;;;;;5075387;28;20040;-82
2021/06/10 08:26:08;;;;;;;8.45;3.95;;;29.60;72.00;;;;;;5073430;28;20044;-84
2021/06/10 08:28:35;;;;;;;5.65;4.20;;;28.70;75.20;;;;;;5065505;28;20525;-84
2021/06/10 08:31:01;;;;;;;5.75;4.35;;;27.60;78.10;;;;;;5057021;28;20647;-85
2021/06/10 08:33:27;;;;;;;6.60;4.25;;;27.20;79.70;;;;;;5064534;28;20028;-85
2021/06/10 08:35:53;;;;;;;5.72;4.30;;;27.00;81.90;;;;;;5065118;28;20056;-85
2021/06/10 08:38:19;;;;;;;4.72;4.10;;;27.00;82.20;;;;;;5056937;28;20052;-85
2021/06/10 08:40:45;;;;;;;6.55;3.97;;;27.70;80.10;;;;;;5063948;28;20507;-86
2021/06/10 08:43:11;;;;;;;10.07;4.30;;;27.20;81.70;;;;;;5065941;28;20024;-86
2021/06/10 08:45:42;;;;;;;5.82;4.30;;;27.90;80.30;;;;;;5067431;28;20024;-86
2021/06/10 08:48:08;;;;;;;5.43;4.15;;;28.40;78.40;;;;;;5053070;28;20027;-86
2021/06/10 08:50:34;;;;;;;6.78;4.40;;;29.40;75.10;;;;;;5056464;28;20031;-86
2021/06/10 08:53:01;;;;;;;4.80;4.30;;;28.80;75.70;;;;;;5062911;28;20029;-87
2021/06/10 08:55:27;;;;;;;6.47;4.18;;;28.00;77.10;;;;;;5061027;28;20481;-85
2021/06/10 08:57:54;;;;;;;7.00;4.60;;;27.40;80.90;;;;;;5050188;28;20154;-85
2021/06/10 09:00:21;;;;;;;11.75;4.82;;;26.90;82.90;;;;;;5051179;28;20119;-84
2021/06/10 09:02:54;;;;;;;7.63;4.00;;;27.60;81.30;;;;;;5059256;28;20020;-85
2021/06/10 09:05:21;;;;;;;5.50;4.80;;;28.70;77.30;;;;;;5064159;28;20029;-86
2021/06/10 09:07:55;;;;;;;6.88;4.13;;;28.30;77.90;;;;;;5062446;28;20036;-83
2021/06/10 09:10:29;;;;;;;4.55;4.10;;;29.30;75.50;;;;;;5066966;28;20527;-85
2021/06/10 09:12:57;;;;;;;4.03;3.63;;;30.40;72.70;;;;;;5059413;28;20029;-85
2021/06/10 09:15:26;;;;;;;8.75;3.67;;;31.40;70.00;;;;;;5054735;28;20396;-85
2021/06/10 09:17:54;;;;;;;6.28;4.20;;;31.60;67.90;;;;;;5063302;28;20085;-85
2021/06/10 09:20:23;;;;;;;6.18;4.03;;;31.60;67.30;;;;;;5058256;28;20481;-84
2021/06/10 09:23:07;;;;;;;4.65;4.18;;;30.50;70.70;;;;;;5065081;28;20044;-83
2021/06/10 09:25:34;;;;;;;6.22;4.30;;;30.30;69.90;;;;;;5063277;28;20047;-84
2021/06/10 09:28:02;;;;;;;6.28;4.28;;;30.80;68.30;;;;;;5064121;28;20108;-84
2021/06/10 09:30:33;;;;;;;6.18;4.07;;;30.40;68.90;;;;;;5054953;28;20508;-84
2021/06/10 09:33:04;;;;;;;7.03;5.10;;;29.20;71.70;;;;;;5066592;28;20035;-85
2021/06/10 09:35:36;;;;;;;6.37;4.90;;;29.50;72.20;;;;;;5066671;28;20385;-86
2021/06/10 09:38:05;;;;;;;7.32;4.90;;;30.30;70.30;;;;;;5062469;28;20262;-86
2021/06/10 09:40:32;;;;;;;8.30;5.00;;;30.30;69.10;;;;;;5055644;28;20028;-87
2021/06/10 09:42:58;;;;;;;6.43;4.93;;;30.80;67.80;;;;;;5066942;28;20161;-86
2021/06/10 09:45:28;;;;;;;9.55;5.95;;;31.30;66.80;;;;;;5060371;28;20108;-85
2021/06/10 09:48:00;;;;;;;7.32;5.30;;;31.40;64.60;;;;;;5051957;28;20024;-86
2021/06/10 09:50:43;;;;;;;7.85;6.07;;;31.30;65.10;;;;;;5054076;28;20029;-86
2021/06/10 09:53:09;;;;;;;13.30;7.43;;;30.80;64.30;;;;;;5050764;28;20024;-84
2021/06/10 09:55:46;;;;;;;6.43;5.85;;;30.40;66.90;;;;;;5067598;28;20024;-85
2021/06/10 09:58:12;;;;;;;8.23;6.93;;;31.40;65.30;;;;;;5057255;28;20421;-85
2021/06/10 10:00:48;;;;;;;10.07;5.93;;;31.60;64.40;;;;;;5069309;28;20027;-87
2021/06/10 10:03:28;;;;;;;11.82;7.85;;;32.00;64.20;;;;;;5071534;28;20031;-86
2021/06/10 10:06:04;;;;;;;10.50;7.53;;;31.40;63.30;;;;;;5076758;28;20032;-86
2021/06/10 10:08:31;;;;;;;10.50;7.78;;;30.70;66.30;;;;;;5058236;28;20029;-84
2021/06/10 10:10:59;;;;;;;9.23;7.40;;;30.30;67.50;;;;;;5066781;28;20039;-85
2021/06/10 10:13:26;;;;;;;10.43;7.85;;;30.60;66.50;;;;;;5059458;28;20500;-85
2021/06/10 10:15:58;;;;;;;7.57;6.22;;;30.70;66.10;;;;;;5072838;28;20791;-87
2021/06/10 10:18:24;;;;;;;9.98;7.60;;;31.00;65.40;;;;;;5075335;28;20090;-84
2021/06/10 10:20:50;;;;;;;8.93;7.00;;;31.10;65.20;;;;;;5070242;28;20020;-84
2021/06/10 10:23:15;;;;;;;16.98;7.15;;;31.80;62.70;;;;;;5078752;28;20033;-84
2021/06/10 10:25:42;;;;;;;12.65;7.55;;;31.10;64.40;;;;;;5078960;28;20131;-84
2021/06/10 10:28:12;;;;;;;9.32;8.02;;;30.60;63.80;;;;;;5077908;28;20048;-85
2021/06/10 10:30:43;;;;;;;10.13;7.03;;;29.70;66.40;;;;;;5078258;28;20541;-85
2021/06/10 10:33:16;;;;;;;18.40;8.07;;;29.90;68.60;;;;;;5070229;28;20021;-85
2021/06/10 10:36:28;;;;;;;13.75;7.35;;;30.40;66.60;;;;;;5065399;28;20024;-85
2021/06/10 10:39:04;;;;;;;10.68;9.57;;;30.20;67.70;;;;;;4976187;28;20792;-85
2021/06/10 10:41:31;;;;;;;18.05;8.32;;;29.70;67.80;;;;;;4997263;28;20565;-85
2021/06/10 10:44:21;;;;;;;11.55;8.05;;;29.70;69.50;;;;;;5031463;28;20028;-85
2021/06/10 10:46:59;;;;;;;8.93;7.63;;;29.30;70.90;;;;;;5071993;28;20112;-85
2021/06/10 10:49:29;;;;;;;10.02;6.60;;;29.40;70.10;;;;;;5080057;28;20035;-84
2021/06/10 10:52:14;;;;;;;7.30;6.57;;;30.10;67.70;;;;;;5080234;28;20028;-84
2021/06/10 10:54:42;;;;;;;10.23;6.00;;;31.40;63.50;;;;;;5078207;28;20024;-85
2021/06/10 10:57:30;;;;;;;10.48;7.93;;;31.90;62.30;;;;;;5064926;28;20032;-85
2021/06/10 10:59:56;;;;;;;11.43;7.18;;;31.40;63.50;;;;;;5072336;28;20036;-85
2021/06/10 11:02:23;;;;;;;11.02;9.02;;;31.70;62.80;;;;;;5070886;28;20040;-85
2021/06/10 11:04:59;;;;;;;9.85;7.55;;;31.20;61.50;;;;;;5072602;28;20043;-87
2021/06/10 11:07:40;;;;;;;10.35;6.82;;;30.80;64.50;;;;;;5068645;28;20031;-84
2021/06/10 11:10:08;;;;;;;8.77;7.97;;;32.00;62.00;;;;;;5069811;28;20107;-87
2021/06/10 11:12:53;;;;;;;13.50;6.05;;;32.20;59.50;;;;;;5063625;28;20040;-86
2021/06/10 11:15:34;;;;;;;7.00;6.25;;;32.90;58.30;;;;;;5053781;28;20040;-87
2021/06/10 11:18:06;;;;;;;6.97;5.72;;;33.00;57.00;;;;;;5067807;28;20028;-86
2021/06/10 11:20:38;;;;;;;8.15;5.90;;;32.70;57.50;;;;;;5054054;28;20049;-87
2021/06/10 11:23:27;;;;;;;10.55;6.28;;;33.20;57.30;;;;;;5066601;28;20619;-87
2021/06/10 11:25:56;;;;;;;8.85;6.93;;;32.70;58.80;;;;;;5062123;28;20100;-87
2021/06/10 11:28:24;;;;;;;9.75;7.35;;;31.80;59.80;;;;;;5056383;28;20020;-88
2021/06/10 11:30:53;;;;;;;6.45;5.60;;;30.80;61.60;;;;;;5059486;28;20046;-87
2021/06/10 11:33:19;;;;;;;5.35;4.55;;;31.90;59.20;;;;;;5062036;28;20020;-87
2021/06/10 11:35:53;;;;;;;5.15;4.50;;;31.90;57.20;;;;;;5063660;28;20085;-87
2021/06/10 11:38:28;;;;;;;6.47;4.78;;;30.60;59.30;;;;;;5054250;28;20433;-87
2021/06/10 11:41:10;;;;;;;9.38;6.15;;;31.10;58.90;;;;;;5065441;28;20024;-88
2021/06/10 11:43:42;;;;;;;6.93;5.63;;;31.10;60.10;;;;;;5049293;28;20507;-88
2021/06/10 11:46:10;;;;;;;5.70;5.15;;;30.90;61.10;;;;;;5065396;28;20024;-87
2021/06/10 11:48:53;;;;;;;7.90;5.63;;;30.70;60.10;;;;;;5061208;28;20070;-88
2021/06/10 11:51:22;;;;;;;9.68;4.95;;;30.00;61.00;;;;;;5066238;28;20812;-87
2021/06/10 11:53:49;;;;;;;7.63;5.15;;;31.00;60.40;;;;;;5066029;28;20064;-87
2021/06/10 11:56:22;;;;;;;14.43;5.57;;;32.00;55.90;;;;;;5065696;28;20139;-88
2021/06/10 11:58:48;;;;;;;9.02;5.40;;;31.90;55.20;;;;;;5067570;28;20142;-86
2021/06/10 12:01:14;;;;;;;6.28;5.38;;;32.30;57.30;;;;;;5060991;28;20017;-86
2021/06/10 12:03:41;;;;;;;14.52;5.28;;;32.50;55.90;;;;;;5071200;28;20587;-86
2021/06/10 12:06:09;;;;;;;7.65;4.40;;;33.80;54.30;;;;;;5072701;28;20029;-87
2021/06/10 12:08:36;;;;;;;9.80;4.97;;;32.50;55.40;;;;;;5071998;28;20114;-87
2021/06/10 12:11:07;;;;;;;12.10;5.75;;;30.60;58.30;;;;;;5077939;28;20541;-82
2021/06/10 12:13:37;;;;;;;6.07;5.22;;;30.80;57.90;;;;;;5070355;28;20024;-83
2021/06/10 12:16:07;;;;;;;9.80;5.55;;;31.80;57.10;;;;;;5065504;28;20074;-84
2021/06/10 12:18:35;;;;;;;12.88;6.00;;;32.50;57.00;;;;;;5069347;28;20647;-84
2021/06/10 12:21:09;;;;;;;4.93;4.50;;;33.50;54.50;;;;;;5059910;28;20083;-84
2021/06/10 12:23:48;;;;;;;8.02;4.78;;;33.40;53.20;;;;;;5059600;28;20037;-84
2021/06/10 12:26:16;;;;;;;7.53;5.05;;;32.70;54.50;;;;;;5074465;28;20047;-85
2021/06/10 12:28:46;;;;;;;6.03;5.03;;;31.60;56.10;;;;;;5074498;28;20666;-85
2021/06/10 12:31:16;;;;;;;6.00;4.95;;;30.30;57.70;;;;;;5069372;28;20024;-84
2021/06/10 12:33:50;;;;;;;10.60;4.60;;;28.90;60.70;;;;;;5071515;28;20036;-84
2021/06/10 12:36:22;;;;;;;6.38;4.80;;;29.10;61.10;;;;;;5057036;28;20029;-84
2021/06/10 12:38:58;;;;;;;7.70;4.88;;;28.90;61.00;;;;;;5064103;28;20173;-83
2021/06/10 12:41:30;;;;;;;9.88;5.30;;;28.90;62.60;;;;;;5061384;28;20024;-83
2021/06/10 12:44:08;;;;;;;7.13;5.68;;;29.50;62.40;;;;;;5058907;28;20098;-84
2021/06/10 12:46:51;;;;;;;7.85;5.97;;;30.40;61.40;;;;;;5069869;28;20035;-85